Davenport, IA

6:04 AM CDT on July 29, 2015 (GMT -0500)
Davenport Municipal | | Change Station
CLOSE
Current Station
Airport
Location: Davenport,
Elevation: 755 ft
Nearby Weather Stations

Elev 755 ft 41.61 °N, 90.59 °W | Updated 12 minutes ago

Clear
Clear
72 °F
Feels Like 72 °F
N
7
Wind Variable Wind from West

Today
High -- | Low -- °F
--% Chance of Precip.
Yesterday
High -- | Low -- °F
Precip. -- in
5:53 AM 8:23 PM
Waxing Gibbous, 95% visible
Pressure 29.99 in
Visibility 9.0 miles
Clouds Clear
Dew Point 70 °F
Humidity 93%
Rainfall 0.01 in
Snow Depth Not available.
UV 0 out of 12
Pollen 5.70 out of 12
Air Quality Not available.
Flu Activity Not available.
METAR KDVN 291052Z AUTO 27006KT 9SM CLR 22/21 A3001 RMK AO2 RAE0953 SLP156 P0000 T02220211

More Conditions Fewer Conditions

Pressure 29.99 in
Visibility 9.0 miles
Clouds Clear
Dew Point 70 °F
Humidity 93%
Rainfall 0.01 in
Snow Depth Not available.
UV 0 out of 12
Pollen 5.70 out of 12
Air Quality Not available.
Flu Activity Not available.
METAR KDVN 291052Z AUTO 27006KT 9SM CLR 22/21 A3001 RMK AO2 RAE0953 SLP156 P0000 T02220211

More Conditions Fewer Conditions

10-Day Weather Forecast

×

Almanac

Astronomy

Jul. 29, 2015 Rise Set
Actual Time
Civil Twilight
Nautical Twilight
Astronomical Twilight
Moon
Length of Visible Light
Length of Day
Tomorrow will be .
, % of the Moon is Illuminated

Today's Extremes

State Highs State Lows

Community

WunderPhotos

Upload Photos

1,842,075 photos uploaded!

WunderBlogs® & News

Nearby

Air Quality

  Air Quality AQ Index Pollutant
Not available.

Snow Depth

Station Depth Elevation

Earthquake Activity

City Distance Mag. Time & Date
Minimum magnitude displayed is 2.5.

Coastal Water Temperatures

Place Temperature

Stations

Nearby Weather Stations

Station Location Temp. Windchill Dew Point Humidity Wind Precip. Elev Updated Type